sensor_id;sensor_type;location;lat;lon;timestamp;P1;durP1;ratioP1;P2;durP2;ratioP2
31978;SDS011;18502;43.574;1.276;2022-09-19T05:55:31;5.78;;;1.20;;
31978;SDS011;18502;43.574;1.276;2022-09-19T05:57:57;4.93;;;1.42;;
31978;SDS011;18502;43.574;1.276;2022-09-19T06:00:24;5.88;;;1.50;;
31978;SDS011;18502;43.574;1.276;2022-09-19T06:02:51;5.20;;;1.33;;
31978;SDS011;18502;43.574;1.276;2022-09-19T06:05:27;6.47;;;1.10;;
31978;SDS011;18502;43.574;1.276;2022-09-19T06:07:57;1.20;;;1.00;;
31978;SDS011;18502;43.574;1.276;2022-09-19T06:10:24;2.22;;;1.25;;
31978;SDS011;18502;43.574;1.276;2022-09-19T06:12:54;3.17;;;1.10;;
31978;SDS011;18502;43.574;1.276;2022-09-19T06:15:20;2.20;;;1.10;;
31978;SDS011;18502;43.574;1.276;2022-09-19T06:17:46;2.10;;;1.15;;
31978;SDS011;18502;43.574;1.276;2022-09-19T06:20:14;3.65;;;1.33;;
31978;SDS011;18502;43.574;1.276;2022-09-19T06:22:40;6.18;;;1.58;;
31978;SDS011;18502;43.574;1.276;2022-09-19T06:25:06;3.50;;;1.58;;
31978;SDS011;18502;43.574;1.276;2022-09-19T06:27:33;3.13;;;1.30;;
31978;SDS011;18502;43.574;1.276;2022-09-19T06:30:01;3.42;;;1.30;;
31978;SDS011;18502;43.574;1.276;2022-09-19T06:32:28;3.13;;;1.60;;
31978;SDS011;18502;43.574;1.276;2022-09-19T06:34:53;2.80;;;1.58;;
31978;SDS011;18502;43.574;1.276;2022-09-19T06:37:19;4.45;;;1.73;;
31978;SDS011;18502;43.574;1.276;2022-09-19T06:39:45;4.25;;;1.40;;
31978;SDS011;18502;43.574;1.276;2022-09-19T06:42:11;3.97;;;1.50;;
31978;SDS011;18502;43.574;1.276;2022-09-19T06:44:37;8.25;;;1.40;;
31978;SDS011;18502;43.574;1.276;2022-09-19T06:47:02;7.97;;;1.88;;
31978;SDS011;18502;43.574;1.276;2022-09-19T06:49:30;3.53;;;1.40;;
31978;SDS011;18502;43.574;1.276;2022-09-19T06:51:55;2.83;;;1.10;;
31978;SDS011;18502;43.574;1.276;2022-09-19T06:54:22;2.40;;;1.63;;
31978;SDS011;18502;43.574;1.276;2022-09-19T06:56:48;3.90;;;1.35;;
31978;SDS011;18502;43.574;1.276;2022-09-19T06:59:15;4.50;;;1.70;;
31978;SDS011;18502;43.574;1.276;2022-09-19T07:01:42;3.67;;;1.17;;
31978;SDS011;18502;43.574;1.276;2022-09-19T07:04:08;3.50;;;1.40;;
31978;SDS011;18502;43.574;1.276;2022-09-19T07:06:34;1.92;;;1.08;;
31978;SDS011;18502;43.574;1.276;2022-09-19T07:09:01;1.50;;;1.00;;
31978;SDS011;18502;43.574;1.276;2022-09-19T07:11:28;5.13;;;1.63;;
31978;SDS011;18502;43.574;1.276;2022-09-19T07:13:54;2.08;;;1.20;;
31978;SDS011;18502;43.574;1.276;2022-09-19T07:16:19;4.22;;;1.30;;
31978;SDS011;18502;43.574;1.276;2022-09-19T07:18:45;4.22;;;1.60;;
31978;SDS011;18502;43.574;1.276;2022-09-19T07:21:11;4.90;;;1.15;;
31978;SDS011;18502;43.574;1.276;2022-09-19T07:23:36;2.90;;;1.63;;
31978;SDS011;18502;43.574;1.276;2022-09-19T07:26:02;4.13;;;1.40;;
31978;SDS011;18502;43.574;1.276;2022-09-19T07:28:28;4.97;;;1.50;;
31978;SDS011;18502;43.574;1.276;2022-09-19T07:30:56;4.05;;;1.13;;
31978;SDS011;18502;43.574;1.276;2022-09-19T07:33:23;6.40;;;1.73;;
31978;SDS011;18502;43.574;1.276;2022-09-19T07:35:49;3.35;;;1.15;;
31978;SDS011;18502;43.574;1.276;2022-09-19T07:38:18;1.95;;;1.08;;
31978;SDS011;18502;43.574;1.276;2022-09-19T07:40:45;2.90;;;1.15;;
31978;SDS011;18502;43.574;1.276;2022-09-19T07:43:12;5.00;;;1.15;;
31978;SDS011;18502;43.574;1.276;2022-09-19T07:45:41;2.80;;;1.45;;
31978;SDS011;18502;43.574;1.276;2022-09-19T07:48:15;4.68;;;1.40;;
31978;SDS011;18502;43.574;1.276;2022-09-19T07:50:42;2.92;;;1.35;;
31978;SDS011;18502;43.574;1.276;2022-09-19T07:53:12;5.93;;;1.20;;
31978;SDS011;18502;43.574;1.276;2022-09-19T07:55:42;2.25;;;0.93;;
31978;SDS011;18502;43.574;1.276;2022-09-19T07:58:17;4.72;;;1.10;;
31978;SDS011;18502;43.574;1.276;2022-09-19T08:00:44;7.65;;;1.95;;
31978;SDS011;18502;43.574;1.276;2022-09-19T08:03:11;1.45;;;0.80;;
31978;SDS011;18502;43.574;1.276;2022-09-19T08:05:39;4.57;;;1.45;;
31978;SDS011;18502;43.574;1.276;2022-09-19T08:08:09;3.05;;;1.13;;
31978;SDS011;18502;43.574;1.276;2022-09-19T08:10:36;2.83;;;0.98;;
31978;SDS011;18502;43.574;1.276;2022-09-19T08:13:04;3.60;;;0.80;;
31978;SDS011;18502;43.574;1.276;2022-09-19T08:15:31;4.00;;;1.27;;
31978;SDS011;18502;43.574;1.276;2022-09-19T08:17:59;8.10;;;1.80;;
31978;SDS011;18502;43.574;1.276;2022-09-19T08:20:30;4.18;;;1.27;;
31978;SDS011;18502;43.574;1.276;2022-09-19T08:23:00;3.88;;;1.27;;
31978;SDS011;18502;43.574;1.276;2022-09-19T08:25:28;4.53;;;1.30;;
31978;SDS011;18502;43.574;1.276;2022-09-19T08:27:57;3.25;;;1.15;;
31978;SDS011;18502;43.574;1.276;2022-09-19T08:30:23;2.70;;;1.08;;
31978;SDS011;18502;43.574;1.276;2022-09-19T08:32:49;2.22;;;1.00;;
31978;SDS011;18502;43.574;1.276;2022-09-19T08:35:19;5.55;;;1.10;;
31978;SDS011;18502;43.574;1.276;2022-09-19T08:37:46;7.72;;;1.83;;
31978;SDS011;18502;43.574;1.276;2022-09-19T08:40:13;3.60;;;1.33;;
31978;SDS011;18502;43.574;1.276;2022-09-19T08:45:27;2.47;;;1.27;;
31978;SDS011;18502;43.574;1.276;2022-09-19T08:48:20;3.33;;;1.20;;
31978;SDS011;18502;43.574;1.276;2022-09-19T08:50:55;4.40;;;1.40;;
31978;SDS011;18502;43.574;1.276;2022-09-19T08:53:27;2.75;;;1.40;;
31978;SDS011;18502;43.574;1.276;2022-09-19T08:55:57;5.85;;;1.33;;
31978;SDS011;18502;43.574;1.276;2022-09-19T08:58:26;5.13;;;1.50;;
31978;SDS011;18502;43.574;1.276;2022-09-19T09:00:54;3.85;;;1.20;;
31978;SDS011;18502;43.574;1.276;2022-09-19T09:03:41;6.63;;;1.40;;
31978;SDS011;18502;43.574;1.276;2022-09-19T09:06:36;3.83;;;1.25;;
31978;SDS011;18502;43.574;1.276;2022-09-19T09:14:24;4.68;;;1.17;;
31978;SDS011;18502;43.574;1.276;2022-09-19T09:17:16;6.32;;;1.75;;
31978;SDS011;18502;43.574;1.276;2022-09-19T09:19:56;5.82;;;1.45;;
31978;SDS011;18502;43.574;1.276;2022-09-19T09:22:32;4.82;;;1.13;;
31978;SDS011;18502;43.574;1.276;2022-09-19T09:25:10;2.80;;;1.30;;
31978;SDS011;18502;43.574;1.276;2022-09-19T09:28:22;2.35;;;1.27;;
31978;SDS011;18502;43.574;1.276;2022-09-19T09:30:44;2.55;;;1.15;;
31978;SDS011;18502;43.574;1.276;2022-09-19T09:33:18;3.08;;;0.88;;
31978;SDS011;18502;43.574;1.276;2022-09-19T09:35:55;3.40;;;1.40;;
31978;SDS011;18502;43.574;1.276;2022-09-19T09:38:44;3.22;;;1.17;;
31978;SDS011;18502;43.574;1.276;2022-09-19T09:41:24;2.38;;;1.00;;
31978;SDS011;18502;43.574;1.276;2022-09-19T09:49:13;6.07;;;1.50;;
31978;SDS011;18502;43.574;1.276;2022-09-19T09:52:04;4.30;;;1.10;;
31978;SDS011;18502;43.574;1.276;2022-09-19T09:54:33;4.30;;;1.40;;
31978;SDS011;18502;43.574;1.276;2022-09-19T10:00:47;5.63;;;1.45;;
31978;SDS011;18502;43.574;1.276;2022-09-19T10:03:55;3.70;;;1.00;;
31978;SDS011;18502;43.574;1.276;2022-09-19T10:06:29;3.88;;;1.10;;
31978;SDS011;18502;43.574;1.276;2022-09-19T10:11:41;2.78;;;1.20;;
31978;SDS011;18502;43.574;1.276;2022-09-19T10:14:19;3.20;;;0.80;;
31978;SDS011;18502;43.574;1.276;2022-09-19T10:16:49;1.35;;;0.90;;
31978;SDS011;18502;43.574;1.276;2022-09-19T10:19:29;2.55;;;1.00;;
31978;SDS011;18502;43.574;1.276;2022-09-19T10:22:00;4.40;;;1.20;;
31978;SDS011;18502;43.574;1.276;2022-09-19T10:30:17;3.85;;;1.30;;
31978;SDS011;18502;43.574;1.276;2022-09-19T10:32:50;2.70;;;1.20;;
31978;SDS011;18502;43.574;1.276;2022-09-19T10:40:29;2.50;;;1.52;;
31978;SDS011;18502;43.574;1.276;2022-09-19T10:45:25;2.63;;;1.50;;
31978;SDS011;18502;43.574;1.276;2022-09-19T10:47:58;2.72;;;1.30;;
31978;SDS011;18502;43.574;1.276;2022-09-19T10:50:29;3.50;;;1.30;;
31978;SDS011;18502;43.574;1.276;2022-09-19T10:53:00;3.60;;;1.23;;
31978;SDS011;18502;43.574;1.276;2022-09-19T10:55:28;1.90;;;1.08;;
31978;SDS011;18502;43.574;1.276;2022-09-19T10:57:57;2.00;;;1.40;;
31978;SDS011;18502;43.574;1.276;2022-09-19T11:00:30;4.13;;;1.35;;
31978;SDS011;18502;43.574;1.276;2022-09-19T11:11:19;2.63;;;1.10;;
31978;SDS011;18502;43.574;1.276;2022-09-19T11:14:06;2.63;;;1.30;;
31978;SDS011;18502;43.574;1.276;2022-09-19T11:22:47;1.02;;;0.95;;
31978;SDS011;18502;43.574;1.276;2022-09-19T15:44:24;3.13;;;1.20;;
31978;SDS011;18502;43.574;1.276;2022-09-19T15:46:59;1.48;;;1.20;;
31978;SDS011;18502;43.574;1.276;2022-09-19T15:49:33;1.08;;;1.08;;
31978;SDS011;18502;43.574;1.276;2022-09-19T15:54:50;2.92;;;1.40;;
31978;SDS011;18502;43.574;1.276;2022-09-19T16:00:39;1.20;;;1.10;;
31978;SDS011;18502;43.574;1.276;2022-09-19T16:02:58;2.78;;;1.38;;
31978;SDS011;18502;43.574;1.276;2022-09-19T16:05:31;2.80;;;1.35;;
31978;SDS011;18502;43.574;1.276;2022-09-19T16:07:58;1.77;;;1.20;;
31978;SDS011;18502;43.574;1.276;2022-09-19T16:10:45;4.20;;;1.45;;
31978;SDS011;18502;43.574;1.276;2022-09-19T16:13:32;1.42;;;1.02;;
31978;SDS011;18502;43.574;1.276;2022-09-19T16:16:04;1.15;;;0.95;;
31978;SDS011;18502;43.574;1.276;2022-09-19T16:18:51;2.35;;;1.30;;
31978;SDS011;18502;43.574;1.276;2022-09-19T16:21:35;3.00;;;1.33;;
31978;SDS011;18502;43.574;1.276;2022-09-19T16:24:07;1.33;;;1.20;;
31978;SDS011;18502;43.574;1.276;2022-09-19T16:26:41;1.77;;;1.08;;
31978;SDS011;18502;43.574;1.276;2022-09-19T16:29:09;2.45;;;1.10;;
31978;SDS011;18502;43.574;1.276;2022-09-19T16:31:38;5.32;;;1.20;;
31978;SDS011;18502;43.574;1.276;2022-09-19T16:36:54;1.25;;;1.15;;
31978;SDS011;18502;43.574;1.276;2022-09-19T16:42:02;2.90;;;1.20;;
31978;SDS011;18502;43.574;1.276;2022-09-19T16:46:58;9.10;;;1.52;;
31978;SDS011;18502;43.574;1.276;2022-09-19T16:49:26;1.65;;;1.10;;
31978;SDS011;18502;43.574;1.276;2022-09-19T16:51:52;3.72;;;1.40;;
31978;SDS011;18502;43.574;1.276;2022-09-19T16:54:19;1.45;;;1.00;;
31978;SDS011;18502;43.574;1.276;2022-09-19T16:56:46;3.00;;;1.30;;
31978;SDS011;18502;43.574;1.276;2022-09-19T16:59:13;3.03;;;1.50;;
31978;SDS011;18502;43.574;1.276;2022-09-19T17:01:41;1.70;;;1.33;;
31978;SDS011;18502;43.574;1.276;2022-09-19T17:04:09;3.42;;;1.50;;
31978;SDS011;18502;43.574;1.276;2022-09-19T17:06:38;1.63;;;1.30;;
31978;SDS011;18502;43.574;1.276;2022-09-19T17:09:04;4.68;;;1.50;;
31978;SDS011;18502;43.574;1.276;2022-09-19T17:11:30;2.55;;;1.30;;
31978;SDS011;18502;43.574;1.276;2022-09-19T17:13:56;2.03;;;1.17;;
31978;SDS011;18502;43.574;1.276;2022-09-19T17:16:22;4.13;;;1.55;;
31978;SDS011;18502;43.574;1.276;2022-09-19T17:18:48;3.40;;;1.52;;
31978;SDS011;18502;43.574;1.276;2022-09-19T17:21:14;2.35;;;1.38;;
31978;SDS011;18502;43.574;1.276;2022-09-19T17:23:41;3.92;;;1.42;;
31978;SDS011;18502;43.574;1.276;2022-09-19T17:26:08;4.07;;;1.20;;
31978;SDS011;18502;43.574;1.276;2022-09-19T17:28:34;1.80;;;1.30;;
31978;SDS011;18502;43.574;1.276;2022-09-19T17:31:00;1.63;;;1.48;;
31978;SDS011;18502;43.574;1.276;2022-09-19T17:33:27;5.65;;;2.00;;
31978;SDS011;18502;43.574;1.276;2022-09-19T17:35:55;4.13;;;1.70;;
31978;SDS011;18502;43.574;1.276;2022-09-19T17:38:26;4.05;;;1.63;;
31978;SDS011;18502;43.574;1.276;2022-09-19T17:40:53;2.50;;;1.73;;
31978;SDS011;18502;43.574;1.276;2022-09-19T17:43:20;6.43;;;2.03;;
31978;SDS011;18502;43.574;1.276;2022-09-19T17:45:48;4.80;;;1.95;;
31978;SDS011;18502;43.574;1.276;2022-09-19T17:48:24;3.35;;;1.70;;
31978;SDS011;18502;43.574;1.276;2022-09-19T17:50:51;4.57;;;2.90;;
31978;SDS011;18502;43.574;1.276;2022-09-19T17:53:17;3.47;;;2.17;;
31978;SDS011;18502;43.574;1.276;2022-09-19T17:55:42;3.33;;;1.90;;
31978;SDS011;18502;43.574;1.276;2022-09-19T17:58:09;4.60;;;2.40;;
31978;SDS011;18502;43.574;1.276;2022-09-19T18:00:38;2.30;;;2.00;;
31978;SDS011;18502;43.574;1.276;2022-09-19T18:03:03;4.63;;;2.00;;
31978;SDS011;18502;43.574;1.276;2022-09-19T18:05:54;3.72;;;1.90;;
31978;SDS011;18502;43.574;1.276;2022-09-19T18:08:24;3.90;;;2.28;;
31978;SDS011;18502;43.574;1.276;2022-09-19T18:10:51;4.95;;;2.10;;
31978;SDS011;18502;43.574;1.276;2022-09-19T18:13:16;4.80;;;1.70;;
31978;SDS011;18502;43.574;1.276;2022-09-19T18:15:42;4.15;;;1.95;;
31978;SDS011;18502;43.574;1.276;2022-09-19T18:18:11;10.20;;;2.10;;
31978;SDS011;18502;43.574;1.276;2022-09-19T18:20:37;2.53;;;1.90;;
31978;SDS011;18502;43.574;1.276;2022-09-19T18:23:03;3.40;;;2.08;;
31978;SDS011;18502;43.574;1.276;2022-09-19T18:25:29;3.45;;;1.50;;
31978;SDS011;18502;43.574;1.276;2022-09-19T18:27:57;4.65;;;2.10;;
31978;SDS011;18502;43.574;1.276;2022-09-19T18:30:24;3.13;;;2.03;;
31978;SDS011;18502;43.574;1.276;2022-09-19T18:32:50;4.60;;;1.55;;
31978;SDS011;18502;43.574;1.276;2022-09-19T18:35:17;4.03;;;1.77;;
31978;SDS011;18502;43.574;1.276;2022-09-19T18:37:43;4.78;;;2.45;;
31978;SDS011;18502;43.574;1.276;2022-09-19T18:40:10;3.00;;;2.05;;
31978;SDS011;18502;43.574;1.276;2022-09-19T18:42:37;4.07;;;2.10;;
31978;SDS011;18502;43.574;1.276;2022-09-19T18:45:04;6.15;;;2.80;;
31978;SDS011;18502;43.574;1.276;2022-09-19T18:47:32;5.38;;;2.03;;
31978;SDS011;18502;43.574;1.276;2022-09-19T18:49:59;3.85;;;2.15;;
31978;SDS011;18502;43.574;1.276;2022-09-19T18:52:28;5.55;;;2.38;;
31978;SDS011;18502;43.574;1.276;2022-09-19T18:54:54;3.03;;;1.73;;
31978;SDS011;18502;43.574;1.276;2022-09-19T18:57:20;5.40;;;1.90;;
31978;SDS011;18502;43.574;1.276;2022-09-19T18:59:46;8.20;;;1.88;;
31978;SDS011;18502;43.574;1.276;2022-09-19T19:02:11;12.40;;;2.42;;
31978;SDS011;18502;43.574;1.276;2022-09-19T19:04:37;4.38;;;1.90;;
31978;SDS011;18502;43.574;1.276;2022-09-19T19:07:04;3.92;;;2.40;;
31978;SDS011;18502;43.574;1.276;2022-09-19T19:09:32;4.93;;;2.28;;
31978;SDS011;18502;43.574;1.276;2022-09-19T19:11:58;4.05;;;2.03;;
31978;SDS011;18502;43.574;1.276;2022-09-19T19:14:26;6.70;;;2.47;;
31978;SDS011;18502;43.574;1.276;2022-09-19T19:16:52;4.70;;;2.17;;
31978;SDS011;18502;43.574;1.276;2022-09-19T19:19:18;4.38;;;1.95;;
31978;SDS011;18502;43.574;1.276;2022-09-19T19:21:44;5.78;;;2.08;;
31978;SDS011;18502;43.574;1.276;2022-09-19T19:24:16;3.78;;;2.20;;
31978;SDS011;18502;43.574;1.276;2022-09-19T19:26:45;4.90;;;2.15;;
31978;SDS011;18502;43.574;1.276;2022-09-19T19:29:10;4.38;;;2.33;;
31978;SDS011;18502;43.574;1.276;2022-09-19T19:31:37;5.22;;;2.13;;
31978;SDS011;18502;43.574;1.276;2022-09-19T19:34:04;7.75;;;2.20;;
31978;SDS011;18502;43.574;1.276;2022-09-19T19:36:32;4.22;;;1.80;;
31978;SDS011;18502;43.574;1.276;2022-09-19T19:38:59;6.00;;;1.88;;
31978;SDS011;18502;43.574;1.276;2022-09-19T19:41:25;2.55;;;1.88;;
31978;SDS011;18502;43.574;1.276;2022-09-19T19:43:54;5.45;;;1.60;;
31978;SDS011;18502;43.574;1.276;2022-09-19T19:46:22;4.25;;;1.92;;
31978;SDS011;18502;43.574;1.276;2022-09-19T19:48:52;1.75;;;1.30;;
31978;SDS011;18502;43.574;1.276;2022-09-19T19:51:20;4.25;;;1.98;;
31978;SDS011;18502;43.574;1.276;2022-09-19T19:53:47;2.47;;;1.75;;
31978;SDS011;18502;43.574;1.276;2022-09-19T19:56:17;1.85;;;1.50;;
31978;SDS011;18502;43.574;1.276;2022-09-19T19:58:44;4.60;;;1.52;;
31978;SDS011;18502;43.574;1.276;2022-09-19T20:01:12;2.63;;;1.73;;
31978;SDS011;18502;43.574;1.276;2022-09-19T20:03:43;7.05;;;2.03;;
31978;SDS011;18502;43.574;1.276;2022-09-19T20:06:10;2.58;;;1.75;;
31978;SDS011;18502;43.574;1.276;2022-09-19T20:08:37;2.25;;;1.50;;
31978;SDS011;18502;43.574;1.276;2022-09-19T20:11:04;5.38;;;2.22;;
31978;SDS011;18502;43.574;1.276;2022-09-19T20:13:30;2.00;;;1.40;;
31978;SDS011;18502;43.574;1.276;2022-09-19T20:15:57;4.00;;;1.83;;
31978;SDS011;18502;43.574;1.276;2022-09-19T20:18:24;2.45;;;1.67;;
31978;SDS011;18502;43.574;1.276;2022-09-19T20:20:50;3.63;;;1.65;;
31978;SDS011;18502;43.574;1.276;2022-09-19T20:23:16;2.42;;;1.75;;
31978;SDS011;18502;43.574;1.276;2022-09-19T20:25:45;3.17;;;1.35;;
31978;SDS011;18502;43.574;1.276;2022-09-19T20:28:11;3.47;;;1.75;;
31978;SDS011;18502;43.574;1.276;2022-09-19T20:30:37;3.65;;;1.90;;
31978;SDS011;18502;43.574;1.276;2022-09-19T20:33:03;3.20;;;1.35;;
31978;SDS011;18502;43.574;1.276;2022-09-19T20:35:29;3.35;;;1.55;;
31978;SDS011;18502;43.574;1.276;2022-09-19T20:37:56;3.95;;;1.88;;
31978;SDS011;18502;43.574;1.276;2022-09-19T20:40:21;3.85;;;1.85;;
31978;SDS011;18502;43.574;1.276;2022-09-19T20:42:47;2.47;;;1.58;;
31978;SDS011;18502;43.574;1.276;2022-09-19T20:45:15;1.67;;;1.55;;
31978;SDS011;18502;43.574;1.276;2022-09-19T20:47:41;3.30;;;1.70;;
31978;SDS011;18502;43.574;1.276;2022-09-19T20:50:07;3.03;;;1.58;;
31978;SDS011;18502;43.574;1.276;2022-09-19T20:52:33;4.55;;;1.60;;
31978;SDS011;18502;43.574;1.276;2022-09-19T20:54:58;2.00;;;1.58;;
31978;SDS011;18502;43.574;1.276;2022-09-19T20:57:24;4.88;;;1.65;;
31978;SDS011;18502;43.574;1.276;2022-09-19T20:59:49;5.75;;;1.75;;
31978;SDS011;18502;43.574;1.276;2022-09-19T21:02:15;2.78;;;1.48;;
31978;SDS011;18502;43.574;1.276;2022-09-19T21:04:41;3.65;;;1.60;;
31978;SDS011;18502;43.574;1.276;2022-09-19T21:07:06;5.28;;;1.70;;
31978;SDS011;18502;43.574;1.276;2022-09-19T21:09:32;4.30;;;1.83;;
31978;SDS011;18502;43.574;1.276;2022-09-19T21:11:59;2.83;;;1.40;;
31978;SDS011;18502;43.574;1.276;2022-09-19T21:14:25;2.95;;;1.67;;
31978;SDS011;18502;43.574;1.276;2022-09-19T21:16:51;2.65;;;1.30;;
31978;SDS011;18502;43.574;1.276;2022-09-19T21:19:16;2.10;;;1.73;;
31978;SDS011;18502;43.574;1.276;2022-09-19T21:21:42;2.97;;;1.60;;
31978;SDS011;18502;43.574;1.276;2022-09-19T21:24:08;4.70;;;1.77;;
31978;SDS011;18502;43.574;1.276;2022-09-19T21:26:34;2.55;;;1.70;;
31978;SDS011;18502;43.574;1.276;2022-09-19T21:29:02;4.85;;;2.10;;
31978;SDS011;18502;43.574;1.276;2022-09-19T21:31:30;2.10;;;1.77;;
31978;SDS011;18502;43.574;1.276;2022-09-19T21:33:58;4.70;;;1.73;;
31978;SDS011;18502;43.574;1.276;2022-09-19T21:36:25;4.22;;;1.70;;
31978;SDS011;18502;43.574;1.276;2022-09-19T21:38:56;4.65;;;1.88;;
31978;SDS011;18502;43.574;1.276;2022-09-19T21:41:23;5.53;;;2.20;;
31978;SDS011;18502;43.574;1.276;2022-09-19T21:44:07;3.00;;;1.70;;
31978;SDS011;18502;43.574;1.276;2022-09-19T21:46:34;2.60;;;1.73;;
31978;SDS011;18502;43.574;1.276;2022-09-19T21:49:01;4.53;;;2.33;;
31978;SDS011;18502;43.574;1.276;2022-09-19T21:51:28;4.20;;;2.10;;
31978;SDS011;18502;43.574;1.276;2022-09-19T21:53:56;2.15;;;1.23;;
31978;SDS011;18502;43.574;1.276;2022-09-19T21:56:24;4.90;;;1.10;;
31978;SDS011;18502;43.574;1.276;2022-09-19T21:58:51;1.60;;;1.25;;
31978;SDS011;18502;43.574;1.276;2022-09-19T22:01:18;2.00;;;1.40;;
31978;SDS011;18502;43.574;1.276;2022-09-19T22:03:48;1.48;;;1.23;;
31978;SDS011;18502;43.574;1.276;2022-09-19T22:06:14;3.47;;;1.10;;
31978;SDS011;18502;43.574;1.276;2022-09-19T22:08:47;3.30;;;1.33;;
31978;SDS011;18502;43.574;1.276;2022-09-19T22:11:16;1.55;;;1.17;;
31978;SDS011;18502;43.574;1.276;2022-09-19T22:13:43;2.72;;;1.40;;
31978;SDS011;18502;43.574;1.276;2022-09-19T22:16:10;1.50;;;1.05;;
31978;SDS011;18502;43.574;1.276;2022-09-19T22:18:40;3.85;;;1.65;;
31978;SDS011;18502;43.574;1.276;2022-09-19T22:21:07;4.72;;;1.50;;
31978;SDS011;18502;43.574;1.276;2022-09-19T22:23:34;2.50;;;1.23;;
31978;SDS011;18502;43.574;1.276;2022-09-19T22:26:05;2.88;;;1.20;;
31978;SDS011;18502;43.574;1.276;2022-09-19T22:28:31;2.67;;;0.95;;
31978;SDS011;18502;43.574;1.276;2022-09-19T22:31:02;5.35;;;1.10;;
31978;SDS011;18502;43.574;1.276;2022-09-19T22:33:31;4.28;;;1.40;;
31978;SDS011;18502;43.574;1.276;2022-09-19T22:36:02;1.67;;;1.05;;
31978;SDS011;18502;43.574;1.276;2022-09-19T22:38:30;3.47;;;1.25;;
31978;SDS011;18502;43.574;1.276;2022-09-19T22:40:56;2.05;;;0.90;;
31978;SDS011;18502;43.574;1.276;2022-09-19T22:43:23;3.78;;;1.00;;
31978;SDS011;18502;43.574;1.276;2022-09-19T22:45:49;2.05;;;1.15;;
31978;SDS011;18502;43.574;1.276;2022-09-19T22:48:15;2.22;;;1.13;;
31978;SDS011;18502;43.574;1.276;2022-09-19T22:50:41;3.20;;;1.10;;
31978;SDS011;18502;43.574;1.276;2022-09-19T22:53:07;3.20;;;1.08;;
31978;SDS011;18502;43.574;1.276;2022-09-19T22:55:34;4.25;;;1.38;;
31978;SDS011;18502;43.574;1.276;2022-09-19T22:58:01;2.83;;;1.20;;
31978;SDS011;18502;43.574;1.276;2022-09-19T23:00:27;3.30;;;1.10;;
31978;SDS011;18502;43.574;1.276;2022-09-19T23:02:52;2.92;;;1.35;;
31978;SDS011;18502;43.574;1.276;2022-09-19T23:05:18;2.95;;;1.20;;
31978;SDS011;18502;43.574;1.276;2022-09-19T23:07:44;3.72;;;1.10;;
31978;SDS011;18502;43.574;1.276;2022-09-19T23:10:09;3.10;;;0.80;;
